Time;durP1;ratioP1;P1;durP2;ratioP2;P2;SDS_P1;SDS_P2;PMS_P1;PMS_P2;Temp;Humidity;BMP_temperature;BMP_pressure;BME280_temperature;BME280_humidity;BME280_pressure;Samples;Min_cycle;Max_cycle;Signal;HPM_P1;HPM_P2
2023/03/20 00:00:46;;;;;;;10.65;5.78;;;;;;;8.37;82.94;101900.34;5030674;28;20120;-80
2023/03/20 00:03:12;;;;;;;12.30;5.70;;;;;;;8.34;83.05;101891.69;5030543;28;20033;-80
2023/03/20 00:05:38;;;;;;;10.70;5.13;;;;;;;8.34;83.46;101901.16;5030718;28;20091;-80
2023/03/20 00:08:04;;;;;;;11.20;5.32;;;;;;;8.31;83.57;101902.03;5031190;28;20117;-80
2023/03/20 00:10:39;;;;;;;9.85;4.85;;;;;;;8.32;83.46;101901.19;5031401;28;20092;-80
2023/03/20 00:13:07;;;;;;;9.90;4.95;;;;;;;8.30;83.66;101905.50;5030082;28;20032;-80
2023/03/20 00:15:36;;;;;;;9.32;4.80;;;;;;;8.30;83.36;101894.25;5032940;28;20095;-80
2023/03/20 00:18:02;;;;;;;8.60;4.80;;;;;;;8.29;83.65;101885.63;5031490;28;20108;-80
2023/03/20 00:20:27;;;;;;;9.02;4.90;;;;;;;8.29;83.43;101892.50;5012746;28;20025;-80
2023/03/20 00:22:53;;;;;;;9.65;4.70;;;;;;;8.29;83.33;101887.34;5014890;28;20049;-80
2023/03/20 00:25:21;;;;;;;7.57;4.28;;;;;;;8.27;83.26;101889.94;5032591;28;20025;-80
2023/03/20 00:27:47;;;;;;;8.43;4.32;;;;;;;8.26;83.08;101887.34;5032237;28;20543;-80
2023/03/20 00:30:22;;;;;;;10.88;4.65;;;;;;;8.24;82.97;101889.94;5015052;28;20465;-80
2023/03/20 00:32:49;;;;;;;10.27;4.32;;;;;;;8.24;82.94;101889.06;5032518;28;20048;-81
2023/03/20 00:35:32;;;;;;;10.73;4.75;;;;;;;8.24;82.73;101883.91;5027942;28;20049;-80
2023/03/20 00:37:57;;;;;;;11.45;4.68;;;;;;;8.19;82.99;101878.72;5031855;28;20240;-80
2023/03/20 00:40:29;;;;;;;11.57;5.05;;;;;;;8.19;83.10;101873.53;5032386;28;20025;-80
2023/03/20 00:43:03;;;;;;;9.70;5.00;;;;;;;8.19;83.22;101865.75;5032336;28;20029;-80
2023/03/20 00:45:32;;;;;;;9.32;4.38;;;;;;;8.19;83.19;101860.56;5030775;28;20021;-80
2023/03/20 00:47:58;;;;;;;9.77;4.55;;;;;;;8.18;83.17;101858.84;5031244;28;20036;-80
2023/03/20 00:50:27;;;;;;;9.80;4.40;;;;;;;8.16;83.17;101853.63;5031346;28;20030;-80
2023/03/20 00:52:53;;;;;;;9.65;5.10;;;;;;;8.15;83.06;101848.47;5012219;28;20021;-80
2023/03/20 00:55:21;;;;;;;10.20;4.90;;;;;;;8.14;83.20;101841.53;5031877;28;20477;-80
2023/03/20 00:57:51;;;;;;;9.02;4.65;;;;;;;8.13;82.83;101845.84;5031806;28;20028;-80
2023/03/20 01:00:23;;;;;;;11.18;5.05;;;;;;;8.11;83.11;101854.50;5031026;28;20079;-80
2023/03/20 01:02:52;;;;;;;9.13;4.50;;;;;;;8.09;83.33;101854.50;5029737;28;20025;-80
2023/03/20 01:05:18;;;;;;;9.95;4.85;;;;;;;8.10;83.34;101855.34;5030113;28;20028;-80
2023/03/20 01:07:44;;;;;;;8.05;4.13;;;;;;;8.10;82.85;101857.94;5028503;28;20055;-80
2023/03/20 01:10:11;;;;;;;8.57;4.38;;;;;;;8.10;82.92;101876.97;5031074;28;20491;-80
2023/03/20 01:12:38;;;;;;;10.77;4.80;;;;;;;8.10;82.85;101881.28;5015770;28;20032;-80
2023/03/20 01:15:15;;;;;;;9.00;4.65;;;;;;;8.10;83.17;101886.47;5029939;28;20033;-80
2023/03/20 01:17:40;;;;;;;10.27;4.65;;;;;;;8.09;82.82;101895.09;5029563;28;20029;-80
2023/03/20 01:20:14;;;;;;;10.48;4.97;;;;;;;8.08;82.85;101901.13;5028887;28;20556;-80
2023/03/20 01:22:39;;;;;;;9.18;4.55;;;;;;;8.06;82.55;101895.97;5029895;28;20045;-80
2023/03/20 01:25:05;;;;;;;11.57;4.70;;;;;;;8.07;82.25;101896.81;5031675;28;20033;-80
2023/03/20 01:27:30;;;;;;;9.13;4.85;;;;;;;8.03;82.61;101885.59;5031328;28;20056;-80
2023/03/20 01:29:56;;;;;;;10.30;5.28;;;;;;;7.98;82.64;101877.81;5031711;28;20381;-80
2023/03/20 01:32:21;;;;;;;10.80;4.90;;;;;;;7.94;82.86;101876.06;5031023;28;20053;-80
2023/03/20 01:34:46;;;;;;;10.05;4.85;;;;;;;7.91;82.55;101891.59;5031310;28;20025;-80
2023/03/20 01:37:16;;;;;;;9.90;5.45;;;;;;;7.86;82.44;101898.50;5029008;28;20026;-80
2023/03/20 01:39:41;;;;;;;10.38;5.30;;;;;;;7.83;82.31;101898.50;5030762;28;20025;-80
2023/03/20 01:42:06;;;;;;;11.05;5.10;;;;;;;7.78;82.46;101905.41;5030853;28;20026;-80
2023/03/20 01:44:35;;;;;;;9.35;4.80;;;;;;;7.74;82.60;101889.84;5031222;28;20071;-80
2023/03/20 01:47:02;;;;;;;11.90;5.10;;;;;;;7.72;82.48;101904.50;5030169;28;20040;-80
2023/03/20 01:49:27;;;;;;;9.90;4.93;;;;;;;7.71;82.72;101901.91;5031204;28;20032;-80
2023/03/20 01:51:55;;;;;;;10.05;5.28;;;;;;;7.68;82.60;101895.00;5031147;28;20021;-80
2023/03/20 01:54:28;;;;;;;10.10;5.00;;;;;;;7.65;82.90;101897.59;5029457;28;20025;-80
2023/03/20 01:57:02;;;;;;;11.02;5.03;;;;;;;7.60;82.90;101887.19;5029863;28;20025;-80
2023/03/20 01:59:32;;;;;;;9.93;5.20;;;;;;;7.57;82.45;101897.56;5031324;28;20354;-80
2023/03/20 02:01:58;;;;;;;11.07;5.47;;;;;;;7.55;82.90;101877.69;5026375;28;20022;-80
2023/03/20 02:04:30;;;;;;;10.80;5.53;;;;;;;7.51;82.71;101891.50;5031449;28;20545;-80
2023/03/20 02:06:55;;;;;;;;;;;;;;;7.52;81.70;101886.31;5031608;28;20022;-80
2023/03/20 02:09:20;;;;;;;9.63;5.03;;;;;;;7.46;82.64;101873.34;5012468;28;19913;-80
2023/03/20 02:11:47;;;;;;;11.30;5.30;;;;;;;7.43;82.93;101879.38;5031959;28;20504;-80
2023/03/20 02:14:13;;;;;;;12.40;5.78;;;;;;;7.38;82.92;101870.72;5033272;28;20049;-80
2023/03/20 02:16:39;;;;;;;10.50;5.20;;;;;;;7.36;82.73;101881.94;5031998;28;20028;-80
2023/03/20 02:19:13;;;;;;;11.30;5.10;;;;;;;7.31;82.90;101868.09;5034008;28;20029;-80
2023/03/20 02:21:50;;;;;;;10.90;5.55;;;;;;;7.27;83.09;101880.16;5016152;28;20541;-80
2023/03/20 02:24:42;;;;;;;10.52;5.45;;;;;;;7.24;82.75;101888.78;5031454;28;20030;-80
2023/03/20 02:27:22;;;;;;;10.13;5.07;;;;;;;7.21;82.81;101882.72;5017734;28;20063;-80
2023/03/20 02:29:56;;;;;;;11.75;5.28;;;;;;;7.18;83.21;101898.22;5034496;28;20083;-80
2023/03/20 02:32:56;;;;;;;10.70;5.40;;;;;;;7.19;82.57;101897.38;5016160;28;20369;-80
2023/03/20 02:35:40;;;;;;;12.05;5.30;;;;;;;7.16;82.98;101894.78;5015750;28;20434;-80
2023/03/20 02:38:20;;;;;;;11.88;5.90;;;;;;;7.14;82.93;101893.06;5033453;28;20120;-80
2023/03/20 02:41:08;;;;;;;12.93;5.85;;;;;;;7.13;83.03;101903.38;5034516;28;20025;-81
2023/03/20 02:44:18;;;;;;;12.70;5.63;;;;;;;7.11;82.67;101900.78;5034249;28;20037;-80
2023/03/20 02:47:06;;;;;;;13.32;6.30;;;;;;;7.09;82.73;101894.75;5017152;28;20111;-80
2023/03/20 02:49:48;;;;;;;13.05;6.28;;;;;;;7.08;82.77;101897.34;5034011;28;20025;-80
2023/03/20 02:52:35;;;;;;;13.98;6.28;;;;;;;7.06;82.88;101891.28;5033568;28;20021;-80
2023/03/20 02:55:12;;;;;;;12.13;6.10;;;;;;;7.03;82.85;101883.50;5033095;28;20033;-80
2023/03/20 02:58:00;;;;;;;13.25;6.30;;;;;;;7.01;83.12;101880.03;5033366;28;20019;-80
2023/03/20 03:00:34;;;;;;;12.07;6.28;;;;;;;6.96;83.23;101870.50;5030857;28;20029;-80
2023/03/20 03:03:06;;;;;;;13.77;6.75;;;;;;;6.93;83.42;101873.06;5015422;28;20113;-80
2023/03/20 03:05:35;;;;;;;;;;;;;;;6.95;82.10;101866.19;5032158;28;20556;-80
2023/03/20 03:08:03;;;;;;;13.05;6.03;;;;;;;6.89;83.03;101870.47;5033495;28;19928;-80
2023/03/20 03:10:33;;;;;;;13.52;6.63;;;;;;;6.85;83.11;101859.25;5032452;28;20079;-80
2023/03/20 03:13:01;;;;;;;15.18;7.07;;;;;;;6.82;83.46;101870.44;5031921;28;20743;-80
2023/03/20 03:15:54;;;;;;;14.38;7.07;;;;;;;6.80;82.85;101866.97;5031122;28;20109;-80
2023/03/20 03:18:24;;;;;;;12.93;6.47;;;;;;;6.77;83.47;101855.72;5028434;28;20460;-80
2023/03/20 03:20:56;;;;;;;15.77;7.30;;;;;;;6.75;83.58;101858.31;5032327;28;20512;-80
2023/03/20 03:23:29;;;;;;;;;;;;;;;6.78;82.58;101844.53;5032763;28;20025;-80
2023/03/20 03:25:57;;;;;;;13.38;6.28;;;;;;;6.71;83.55;101846.22;5030741;28;20007;-81
2023/03/20 03:28:37;;;;;;;13.57;6.60;;;;;;;6.66;84.01;101843.59;5031772;28;20033;-80
2023/03/20 03:31:10;;;;;;;15.88;6.57;;;;;;;6.64;83.93;101844.47;5033833;28;20372;-81
2023/03/20 03:33:40;;;;;;;14.07;7.07;;;;;;;6.60;83.90;101834.94;5031490;28;20025;-80
2023/03/20 03:36:42;;;;;;;15.13;7.22;;;;;;;6.55;83.87;101822.00;5032704;28;20017;-80
2023/03/20 03:39:21;;;;;;;13.93;6.53;;;;;;;6.51;84.07;101822.81;5033198;28;20032;-80
2023/03/20 03:42:17;;;;;;;14.75;7.57;;;;;;;6.48;84.53;101828.84;5033334;28;20026;-80
2023/03/20 03:45:03;;;;;;;14.02;6.72;;;;;;;6.48;84.47;101838.28;5030989;28;20451;-80
2023/03/20 03:47:38;;;;;;;14.75;6.55;;;;;;;6.47;84.55;101836.56;5031366;28;20117;-80
2023/03/20 03:50:11;;;;;;;14.73;6.72;;;;;;;6.46;84.79;101829.66;5033488;28;20509;-80
2023/03/20 03:52:39;;;;;;;15.25;7.05;;;;;;;6.46;84.64;101834.84;5032363;28;20017;-80
2023/03/20 03:55:20;;;;;;;15.75;7.45;;;;;;;6.43;84.86;101832.22;5030506;28;20362;-80
2023/03/20 03:57:55;;;;;;;13.15;6.60;;;;;;;6.41;84.60;101832.22;5033517;28;20440;-80
2023/03/20 04:00:23;;;;;;;13.82;6.75;;;;;;;6.39;84.62;101826.16;5033514;28;20040;-80
2023/03/20 04:02:55;;;;;;;14.68;6.57;;;;;;;6.39;84.90;101828.75;5032653;28;20692;-80
2023/03/20 04:05:23;;;;;;;13.57;6.00;;;;;;;6.37;84.64;101822.69;5030684;28;20109;-80
2023/03/20 04:07:54;;;;;;;13.65;6.57;;;;;;;6.35;84.86;101817.53;5032592;28;20551;-80
2023/03/20 04:10:19;;;;;;;13.50;6.57;;;;;;;6.36;84.76;101823.56;5032345;28;20029;-80
2023/03/20 04:12:45;;;;;;;15.77;6.70;;;;;;;6.34;84.47;101826.13;5032972;28;20334;-80
2023/03/20 04:15:11;;;;;;;15.20;6.60;;;;;;;6.32;84.88;101821.81;5032157;28;20037;-80
2023/03/20 04:17:37;;;;;;;12.80;6.30;;;;;;;6.30;84.68;101823.53;5031346;28;20021;-80
2023/03/20 04:20:04;;;;;;;14.57;6.45;;;;;;;6.29;84.93;101824.38;5029666;28;20137;-80
2023/03/20 04:22:30;;;;;;;12.32;6.15;;;;;;;6.27;84.61;101819.19;5031971;28;20041;-80
2023/03/20 04:24:55;;;;;;;13.10;6.38;;;;;;;6.26;84.78;101816.59;5031952;28;20068;-80
2023/03/20 04:27:20;;;;;;;10.93;5.95;;;;;;;6.25;84.55;101814.88;5033251;28;20029;-80
2023/03/20 04:29:46;;;;;;;14.65;6.07;;;;;;;6.23;84.83;101810.53;5031413;28;20040;-80
2023/03/20 04:32:11;;;;;;;13.15;6.70;;;;;;;6.20;84.67;101807.94;5032681;28;20025;-80
2023/03/20 04:34:37;;;;;;;12.07;6.22;;;;;;;6.20;84.37;101813.09;5030176;28;20033;-80
2023/03/20 04:37:04;;;;;;;12.15;5.97;;;;;;;6.17;84.76;101813.06;5030225;28;20022;-80
2023/03/20 04:39:29;;;;;;;12.40;5.82;;;;;;;6.13;84.92;101806.16;5015804;28;20033;-80
2023/03/20 04:41:55;;;;;;;12.13;6.28;;;;;;;6.11;84.87;101810.47;5031134;28;20437;-80
2023/03/20 04:44:20;;;;;;;11.45;6.00;;;;;;;6.09;84.74;101799.25;5030222;28;20065;-80
2023/03/20 04:46:45;;;;;;;12.65;5.97;;;;;;;6.08;84.99;101805.25;5031813;28;20037;-80
2023/03/20 04:49:10;;;;;;;12.50;6.30;;;;;;;6.07;84.96;101795.78;5030164;28;20468;-80
2023/03/20 04:51:36;;;;;;;11.10;5.65;;;;;;;6.04;84.45;101785.41;5031599;28;20025;-80
2023/03/20 04:54:01;;;;;;;14.02;6.47;;;;;;;6.01;85.14;101775.94;5031816;28;20436;-80
2023/03/20 04:56:26;;;;;;;12.15;6.20;;;;;;;6.00;84.93;101779.34;5028847;28;20028;-80
2023/03/20 04:58:52;;;;;;;13.95;6.50;;;;;;;5.99;85.16;101784.47;5029756;28;20061;-80
2023/03/20 05:01:17;;;;;;;14.10;6.25;;;;;;;6.00;84.86;101788.81;5030432;28;20048;-80
2023/03/20 05:03:42;;;;;;;12.77;6.15;;;;;;;6.00;85.37;101788.81;5031261;28;20083;-80
2023/03/20 05:06:08;;;;;;;16.02;6.57;;;;;;;6.00;84.84;101799.13;5031022;28;20313;-80
2023/03/20 05:08:33;;;;;;;12.80;6.57;;;;;;;6.03;84.90;101799.19;5031536;28;20033;-80
2023/03/20 05:10:58;;;;;;;13.25;6.75;;;;;;;6.04;84.74;101809.53;5031816;28;20033;-80
2023/03/20 05:13:24;;;;;;;15.13;6.10;;;;;;;6.06;85.09;101804.38;5029239;28;20029;-80
2023/03/20 05:15:49;;;;;;;13.75;6.38;;;;;;;6.07;85.23;101804.38;5031637;28;20041;-80
2023/03/20 05:18:14;;;;;;;14.68;6.50;;;;;;;6.08;84.65;101797.50;5031079;28;20029;-80
2023/03/20 05:20:40;;;;;;;16.23;6.40;;;;;;;6.08;84.81;101793.19;5031099;28;20362;-80
2023/03/20 05:23:05;;;;;;;11.32;6.03;;;;;;;6.09;84.98;101788.91;5030702;28;20119;-80
2023/03/20 05:25:30;;;;;;;11.05;6.05;;;;;;;6.09;84.90;101791.50;5031237;28;20071;-80
2023/03/20 05:27:55;;;;;;;11.85;6.38;;;;;;;6.08;85.01;101787.16;5030691;28;20080;-80
2023/03/20 05:30:22;;;;;;;10.70;5.85;;;;;;;6.09;84.69;101783.75;5030373;28;20061;-80
2023/03/20 05:32:51;;;;;;;12.68;6.63;;;;;;;6.09;84.33;101794.06;5030546;28;20449;-80
2023/03/20 05:35:17;;;;;;;13.35;6.25;;;;;;;6.11;84.15;101794.06;5028573;28;20025;-80
2023/03/20 05:37:42;;;;;;;11.95;5.82;;;;;;;6.11;84.43;101791.50;5028156;28;20034;-80
2023/03/20 05:40:11;;;;;;;12.00;6.15;;;;;;;6.11;83.98;101786.31;5028816;28;20095;-80
2023/03/20 05:42:37;;;;;;;12.63;6.28;;;;;;;6.10;84.28;101790.63;5030383;28;20025;-80
2023/03/20 05:45:03;;;;;;;12.15;5.55;;;;;;;6.11;83.98;101787.19;5014424;28;20028;-80
2023/03/20 05:47:28;;;;;;;13.80;6.35;;;;;;;6.11;84.10;101787.19;5028524;28;20030;-80
2023/03/20 05:49:53;;;;;;;12.32;5.68;;;;;;;6.13;83.78;101792.38;5033625;28;20527;-80
2023/03/20 05:52:19;;;;;;;12.07;5.85;;;;;;;6.12;83.98;101794.09;5033610;28;20025;-80
2023/03/20 05:54:44;;;;;;;12.85;5.50;;;;;;;6.15;83.74;101799.28;5032847;28;20033;-80
2023/03/20 05:57:09;;;;;;;14.50;6.10;;;;;;;6.16;84.04;101807.91;5031896;28;20104;-80
2023/03/20 05:59:35;;;;;;;12.18;5.30;;;;;;;6.17;83.48;101809.63;5032075;28;20112;-80
2023/03/20 06:02:00;;;;;;;10.32;5.50;;;;;;;6.16;83.63;101816.50;5031085;28;20055;-81
2023/03/20 06:04:25;;;;;;;11.57;5.15;;;;;;;6.17;83.64;101818.25;5031331;28;20029;-79
2023/03/20 06:06:50;;;;;;;12.23;4.93;;;;;;;6.18;83.90;101813.94;5032816;28;20444;-80
2023/03/20 06:09:16;;;;;;;10.18;5.10;;;;;;;6.19;84.06;101820.84;5033793;28;20036;-80
2023/03/20 06:11:41;;;;;;;10.40;4.65;;;;;;;6.20;83.60;101820.84;5034573;28;20443;-80
2023/03/20 06:14:06;;;;;;;11.20;5.38;;;;;;;6.22;83.74;101826.06;5031741;28;20029;-80
2023/03/20 06:16:32;;;;;;;9.77;5.10;;;;;;;6.23;83.58;101828.63;5033484;28;20017;-80
2023/03/20 06:18:58;;;;;;;10.55;5.00;;;;;;;6.25;83.54;101830.38;5033337;28;20017;-80
2023/03/20 06:21:23;;;;;;;9.18;4.65;;;;;;;6.26;83.67;101826.94;5033534;28;20388;-80
2023/03/20 06:23:48;;;;;;;10.32;4.85;;;;;;;6.31;83.26;101835.59;5033846;28;20053;-80
2023/03/20 06:26:14;;;;;;;9.63;4.47;;;;;;;6.33;83.53;101836.44;5033988;28;20033;-80
2023/03/20 06:28:39;;;;;;;10.23;4.97;;;;;;;6.33;83.12;101839.03;5034240;28;20067;-80
2023/03/20 06:31:05;;;;;;;13.15;4.70;;;;;;;6.35;83.12;101835.63;5032428;28;20056;-80
2023/03/20 06:33:31;;;;;;;11.23;4.80;;;;;;;6.39;83.26;101833.91;5034115;28;20091;-80
2023/03/20 06:35:56;;;;;;;10.00;5.13;;;;;;;6.41;83.30;101827.06;5034757;28;20463;-80
2023/03/20 06:38:21;;;;;;;9.75;4.97;;;;;;;6.43;83.49;101846.03;5034405;28;20021;-80
2023/03/20 06:40:47;;;;;;;8.73;4.57;;;;;;;6.46;83.37;101840.88;5032734;28;20030;-80
2023/03/20 06:43:12;;;;;;;11.45;4.95;;;;;;;6.49;82.96;101843.47;5033605;28;20021;-80
2023/03/20 06:45:37;;;;;;;10.07;4.80;;;;;;;6.52;82.75;101838.31;5034073;28;20072;-80
2023/03/20 06:48:07;;;;;;;10.95;5.18;;;;;;;6.55;82.98;101845.25;5034154;28;20029;-80
2023/03/20 06:50:33;;;;;;;10.43;5.00;;;;;;;6.54;82.89;101840.94;5032772;28;20028;-80
2023/03/20 06:52:58;;;;;;;11.93;4.72;;;;;;;6.59;82.64;101851.31;5034212;28;20037;-80
2023/03/20 06:55:23;;;;;;;9.63;4.38;;;;;;;6.62;82.58;101861.69;5033607;28;20530;-80
2023/03/20 06:57:48;;;;;;;10.52;5.00;;;;;;;6.67;82.47;101862.56;5033089;28;20029;-80
2023/03/20 07:00:14;;;;;;;12.88;4.75;;;;;;;6.67;82.01;101860.84;5029483;28;20026;-80
2023/03/20 07:02:39;;;;;;;10.05;4.80;;;;;;;6.72;81.75;101867.78;5033345;28;20041;-80
2023/03/20 07:05:05;;;;;;;9.48;4.70;;;;;;;6.75;81.81;101872.94;5032772;28;20025;-80
2023/03/20 07:07:31;;;;;;;12.77;5.15;;;;;;;6.77;82.24;101871.25;5032052;28;20408;-80
2023/03/20 07:09:57;;;;;;;10.10;4.45;;;;;;;6.79;81.49;101869.53;5033906;28;20495;-80
2023/03/20 07:12:27;;;;;;;9.57;4.93;;;;;;;6.80;81.85;101866.97;5031050;28;20041;-80
2023/03/20 07:14:52;;;;;;;12.38;5.10;;;;;;;6.82;82.08;101872.16;5031702;28;20490;-80
2023/03/20 07:17:17;;;;;;;10.38;4.57;;;;;;;6.82;82.03;101875.63;5032570;28;20064;-80
2023/03/20 07:19:43;;;;;;;11.88;5.03;;;;;;;6.86;81.29;101870.44;5030385;28;20029;-80
2023/03/20 07:22:21;;;;;;;11.70;5.15;;;;;;;6.87;81.18;101873.06;5031510;28;20496;-80
2023/03/20 07:24:47;;;;;;;11.85;4.72;;;;;;;6.88;81.21;101879.06;5018253;28;20435;-80
2023/03/20 07:27:12;;;;;;;11.70;5.03;;;;;;;6.86;81.64;101875.59;5026220;28;20036;-80
2023/03/20 07:29:38;;;;;;;10.80;4.47;;;;;;;6.89;80.92;101883.41;5031248;28;20103;-80
2023/03/20 07:32:03;;;;;;;9.82;4.75;;;;;;;6.90;81.60;101886.00;5028306;28;20065;-79
2023/03/20 07:34:28;;;;;;;9.20;4.95;;;;;;;6.92;81.01;101889.44;5029098;28;20485;-80
2023/03/20 07:36:54;;;;;;;11.13;5.28;;;;;;;6.94;80.87;101877.38;5029669;28;20481;-80
2023/03/20 07:39:19;;;;;;;10.15;4.78;;;;;;;6.96;81.00;101872.25;5029812;28;20071;-80
2023/03/20 07:41:45;;;;;;;8.95;4.50;;;;;;;6.99;80.79;101885.19;5032529;28;20030;-80
2023/03/20 07:44:10;;;;;;;10.75;4.57;;;;;;;7.04;80.22;101888.66;5030808;28;20037;-80
2023/03/20 07:46:35;;;;;;;11.93;4.32;;;;;;;7.04;80.54;101886.06;5029058;28;20164;-80
2023/03/20 07:49:01;;;;;;;10.95;4.55;;;;;;;7.09;80.33;101884.38;5028253;28;20033;-80
2023/03/20 07:51:26;;;;;;;13.38;5.13;;;;;;;7.11;80.39;101880.09;5029501;28;20403;-80
2023/03/20 07:53:51;;;;;;;10.20;4.50;;;;;;;7.15;80.13;101875.78;5026950;28;20021;-80
2023/03/20 07:56:17;;;;;;;11.85;4.75;;;;;;;7.17;79.99;101881.84;5032332;28;20432;-80
2023/03/20 07:58:42;;;;;;;11.30;5.15;;;;;;;7.21;80.03;101877.53;5031901;28;20041;-80
2023/03/20 08:01:07;;;;;;;9.98;4.65;;;;;;;7.24;79.59;101878.44;5032695;28;20044;-81
2023/03/20 08:03:32;;;;;;;10.68;4.53;;;;;;;7.24;79.41;101883.63;5031703;28;20037;-80
2023/03/20 08:05:58;;;;;;;10.60;4.35;;;;;;;7.27;79.36;101882.75;5032391;28;20032;-80
2023/03/20 08:08:23;;;;;;;9.18;4.13;;;;;;;7.27;78.82;101882.75;5031145;28;20477;-80
2023/03/20 08:10:48;;;;;;;11.30;4.25;;;;;;;7.30;78.45;101885.38;5013673;28;20037;-80
2023/03/20 08:13:14;;;;;;;9.95;3.97;;;;;;;7.30;78.38;101882.78;5036621;28;20479;-80
2023/03/20 08:15:40;;;;;;;11.50;4.55;;;;;;;7.29;78.53;101881.03;5035864;28;20028;-81
2023/03/20 08:18:05;;;;;;;10.68;4.63;;;;;;;7.31;78.58;101883.63;5035923;28;20448;-80
2023/03/20 08:20:31;;;;;;;9.88;4.18;;;;;;;7.30;78.11;101890.53;5036818;28;20547;-80
2023/03/20 08:22:56;;;;;;;11.85;4.35;;;;;;;7.32;77.89;101888.81;5037086;28;20392;-80
2023/03/20 08:25:21;;;;;;;10.63;4.35;;;;;;;7.29;77.95;101881.03;5035735;28;20033;-79
2023/03/20 08:27:47;;;;;;;12.63;4.45;;;;;;;7.28;77.94;101889.66;5035082;28;20044;-79
2023/03/20 08:30:13;;;;;;;11.23;4.30;;;;;;;7.25;78.41;101874.13;5031089;28;20468;-79
2023/03/20 08:32:39;;;;;;;12.10;4.68;;;;;;;7.25;78.17;101884.47;5037427;28;20035;-80
2023/03/20 08:35:05;;;;;;;13.98;4.60;;;;;;;7.27;77.95;101877.56;5036146;28;20039;-79
2023/03/20 08:37:30;;;;;;;10.52;4.28;;;;;;;7.28;77.76;101882.75;5036279;28;20028;-79
2023/03/20 08:39:55;;;;;;;9.50;4.15;;;;;;;7.30;77.68;101887.94;5038284;28;20033;-81
2023/03/20 08:42:21;;;;;;;13.55;4.38;;;;;;;7.30;77.45;101885.38;5034429;28;20311;-81
2023/03/20 08:44:47;;;;;;;9.57;4.30;;;;;;;7.30;77.58;101882.78;5036139;28;20067;-81
2023/03/20 08:47:12;;;;;;;11.18;4.10;;;;;;;7.33;76.77;101885.38;5035910;28;20147;-82
2023/03/20 08:49:37;;;;;;;9.57;4.00;;;;;;;7.35;76.65;101888.81;5036203;28;20489;-81
2023/03/20 08:52:03;;;;;;;11.18;4.00;;;;;;;7.38;76.85;101887.97;5035733;28;20037;-81
2023/03/20 08:54:29;;;;;;;10.45;4.05;;;;;;;7.41;77.37;101886.25;5034637;28;20590;-82
2023/03/20 08:56:55;;;;;;;11.70;4.68;;;;;;;7.46;77.02;101882.84;5039682;28;20481;-81
2023/03/20 08:59:20;;;;;;;12.85;3.95;;;;;;;7.51;76.73;101886.31;5041088;28;20025;-82
2023/03/20 09:01:46;;;;;;;10.18;3.70;;;;;;;7.56;76.71;101874.22;5038636;28;20039;-81
2023/03/20 09:04:14;;;;;;;10.40;3.45;;;;;;;7.60;76.67;101875.97;5034259;28;20037;-81
2023/03/20 09:06:40;;;;;;;11.52;4.20;;;;;;;7.65;76.40;101871.69;5036235;28;20496;-82
2023/03/20 09:09:06;;;;;;;7.93;3.55;;;;;;;7.67;75.79;101867.38;5036184;28;20601;-82
2023/03/20 09:11:32;;;;;;;10.60;3.63;;;;;;;7.68;77.07;101866.53;5035627;28;20051;-81
2023/03/20 09:13:59;;;;;;;11.50;3.97;;;;;;;7.70;76.27;101872.53;5038405;28;20041;-82
2023/03/20 09:16:24;;;;;;;10.63;3.60;;;;;;;7.71;75.87;101871.69;5038731;28;20024;-81
2023/03/20 09:18:50;;;;;;;10.50;4.03;;;;;;;7.70;76.26;101872.53;5037380;28;20036;-82
2023/03/20 09:21:15;;;;;;;10.60;3.58;;;;;;;7.69;75.75;101878.59;5031623;28;20526;-82
2023/03/20 09:23:41;;;;;;;9.75;3.38;;;;;;;7.69;75.90;101875.16;5031091;28;20037;-82
2023/03/20 09:26:06;;;;;;;10.00;3.42;;;;;;;7.68;75.95;101879.47;5033529;28;20086;-81
2023/03/20 09:28:31;;;;;;;9.23;3.38;;;;;;;7.66;75.56;101886.38;5032489;28;20036;-81
2023/03/20 09:30:57;;;;;;;11.20;3.92;;;;;;;7.66;75.32;101888.06;5033703;28;20036;-80
2023/03/20 09:33:23;;;;;;;10.27;3.70;;;;;;;7.67;75.61;101884.63;5035322;28;20067;-80
2023/03/20 09:35:49;;;;;;;9.70;3.38;;;;;;;7.69;75.76;101886.34;5030492;28;20036;-81
2023/03/20 09:38:14;;;;;;;11.55;3.47;;;;;;;7.72;75.61;101886.38;5036897;28;20033;-80
2023/03/20 09:40:57;;;;;;;7.55;3.22;;;;;;;7.79;75.64;101897.63;5035663;28;20057;-80
2023/03/20 09:43:55;;;;;;;8.68;3.25;;;;;;;7.86;75.16;101893.31;5036110;28;20120;-81
2023/03/20 09:46:48;;;;;;;9.90;3.40;;;;;;;7.81;76.27;101893.31;5036197;28;20032;-81
2023/03/20 09:49:38;;;;;;;9.30;3.15;;;;;;;7.85;75.56;101905.41;5017319;28;20037;-81
2023/03/20 09:52:11;;;;;;;10.98;3.47;;;;;;;7.83;76.45;101903.69;5032622;28;20068;-81
2023/03/20 09:54:41;;;;;;;8.50;3.20;;;;;;;7.84;76.70;101901.09;5039181;28;20059;-80
2023/03/20 09:57:19;;;;;;;11.02;3.40;;;;;;;7.90;78.16;101906.31;5038504;28;20028;-78
2023/03/20 09:59:46;;;;;;;7.38;3.58;;;;;;;8.01;77.95;101916.69;5036511;28;20036;-79
2023/03/20 10:02:23;;;;;;;8.52;3.38;;;;;;;8.03;76.77;101907.16;5035287;28;20124;-79
2023/03/20 10:04:52;;;;;;;7.82;2.78;;;;;;;8.05;76.56;101900.25;5039247;28;20408;-79
2023/03/20 10:07:17;;;;;;;6.25;2.95;;;;;;;8.07;77.25;101907.19;5038827;28;20034;-79
2023/03/20 10:09:44;;;;;;;7.38;2.90;;;;;;;8.07;76.62;101891.63;5031181;28;20480;-78
2023/03/20 10:12:32;;;;;;;10.40;3.03;;;;;;;8.03;76.86;101891.63;5035420;28;20396;-79
2023/03/20 10:15:18;;;;;;;7.25;2.75;;;;;;;8.04;76.10;101893.34;5034999;28;20298;-79
2023/03/20 10:18:02;;;;;;;7.15;2.53;;;;;;;8.00;77.19;101888.16;5036702;28;20048;-79
2023/03/20 10:20:35;;;;;;;6.93;2.50;;;;;;;7.99;77.48;101887.31;5037205;28;20060;-79
2023/03/20 10:23:22;;;;;;;6.45;2.67;;;;;;;8.01;77.13;101892.50;5035022;28;20110;-81
2023/03/20 10:26:01;;;;;;;5.35;2.25;;;;;;;8.00;76.55;101886.47;5033372;28;20116;-80
2023/03/20 10:28:35;;;;;;;9.23;2.85;;;;;;;8.05;77.05;101887.31;5031489;28;20043;-80
2023/03/20 10:31:21;;;;;;;7.18;2.63;;;;;;;8.10;77.20;101881.28;5035510;28;20205;-79
2023/03/20 10:34:06;;;;;;;6.82;2.50;;;;;;;8.13;77.48;101881.28;5035872;28;20025;-80
2023/03/20 10:36:43;;;;;;;6.80;2.72;;;;;;;8.13;78.07;101870.91;5040312;28;20060;-79
2023/03/20 10:39:17;;;;;;;8.90;3.00;;;;;;;8.15;78.90;101874.38;5040224;28;20040;-80
2023/03/20 10:41:51;;;;;;;7.63;2.78;;;;;;;8.19;76.90;101876.13;5039064;28;20077;-80
2023/03/20 10:44:47;;;;;;;7.70;3.00;;;;;;;8.18;77.53;101880.41;5035584;28;20078;-80
2023/03/20 10:47:18;;;;;;;9.55;3.28;;;;;;;8.14;78.32;101868.31;5028691;28;20114;-80
2023/03/20 10:49:53;;;;;;;7.72;3.17;;;;;;;8.10;78.00;101871.78;5035390;28;20044;-80
2023/03/20 10:52:24;;;;;;;6.70;2.80;;;;;;;8.10;77.92;101870.91;5032388;28;20060;-80
2023/03/20 10:55:01;;;;;;;8.57;2.80;;;;;;;8.08;78.13;101873.50;5036567;28;20079;-80
2023/03/20 10:57:31;;;;;;;8.55;3.05;;;;;;;8.01;79.19;101864.00;5034297;28;20057;-80
2023/03/20 10:59:57;;;;;;;8.32;3.20;;;;;;;7.96;79.40;101874.34;5039037;28;20056;-80
2023/03/20 11:02:31;;;;;;;8.73;3.33;;;;;;;7.93;78.58;101863.13;5033718;28;20021;-81
2023/03/20 11:04:59;;;;;;;9.20;3.70;;;;;;;7.89;79.06;101872.59;5034947;28;20220;-81
2023/03/20 11:07:27;;;;;;;10.70;3.50;;;;;;;7.87;79.55;101867.44;5034089;28;20128;-81
2023/03/20 11:10:05;;;;;;;10.05;3.58;;;;;;;7.90;79.36;101866.56;5037170;28;20123;-81
2023/03/20 11:12:44;;;;;;;9.10;3.47;;;;;;;7.95;79.63;101867.44;5031896;28;20366;-82
2023/03/20 11:15:25;;;;;;;10.82;3.55;;;;;;;8.03;79.24;101865.69;5035204;28;20036;-81
2023/03/20 11:17:59;;;;;;;8.27;3.30;;;;;;;8.09;78.49;101864.88;5031269;28;20055;-81
2023/03/20 11:20:30;;;;;;;6.90;3.15;;;;;;;8.14;78.85;101857.09;5035703;28;20039;-81
2023/03/20 11:22:58;;;;;;;8.23;3.65;;;;;;;8.17;78.33;101851.91;5036598;28;20039;-82
2023/03/20 11:25:29;;;;;;;7.38;3.28;;;;;;;8.13;78.79;101851.03;5036765;28;20068;-80
2023/03/20 11:27:56;;;;;;;8.45;3.55;;;;;;;8.13;79.24;101840.66;5034356;28;20037;-81
2023/03/20 11:30:22;;;;;;;7.05;2.70;;;;;;;8.17;79.98;101841.56;5032474;28;20153;-80
2023/03/20 11:32:49;;;;;;;9.35;3.30;;;;;;;8.25;79.42;101834.63;5014827;28;20437;-80
2023/03/20 11:35:24;;;;;;;7.25;3.20;;;;;;;8.30;78.54;101838.09;5029400;28;20031;-81
2023/03/20 11:37:52;;;;;;;11.23;4.10;;;;;;;8.33;78.39;101835.50;5034336;28;20043;-81
2023/03/20 11:40:18;;;;;;;9.25;3.65;;;;;;;8.40;79.88;101827.69;5034524;28;20036;-80